sensor_id;sensor_type;location;lat;lon;timestamp;P1;durP1;ratioP1;P2;durP2;ratioP2
25609;SDS011;13479;49.044;8.716;2023-04-19T04:00:41;16.00;;;8.50;;
25609;SDS011;13479;49.044;8.716;2023-04-19T04:03:06;15.23;;;9.00;;
25609;SDS011;13479;49.044;8.716;2023-04-19T04:05:33;11.82;;;5.82;;
25609;SDS011;13479;49.044;8.716;2023-04-19T04:07:58;15.00;;;8.90;;
25609;SDS011;13479;49.044;8.716;2023-04-19T04:10:24;14.02;;;8.52;;
25609;SDS011;13479;49.044;8.716;2023-04-19T04:12:49;12.82;;;7.05;;
25609;SDS011;13479;49.044;8.716;2023-04-19T04:15:14;15.35;;;9.45;;
25609;SDS011;13479;49.044;8.716;2023-04-19T04:17:40;12.55;;;6.28;;
25609;SDS011;13479;49.044;8.716;2023-04-19T04:20:05;12.48;;;7.10;;
25609;SDS011;13479;49.044;8.716;2023-04-19T04:22:32;12.10;;;6.97;;
25609;SDS011;13479;49.044;8.716;2023-04-19T04:24:57;13.63;;;7.18;;
25609;SDS011;13479;49.044;8.716;2023-04-19T04:27:25;13.95;;;8.68;;
25609;SDS011;13479;49.044;8.716;2023-04-19T04:29:50;14.65;;;8.90;;
25609;SDS011;13479;49.044;8.716;2023-04-19T04:32:15;12.48;;;6.65;;
25609;SDS011;13479;49.044;8.716;2023-04-19T04:34:42;15.07;;;8.60;;
25609;SDS011;13479;49.044;8.716;2023-04-19T04:37:07;15.15;;;8.52;;
25609;SDS011;13479;49.044;8.716;2023-04-19T04:39:32;13.68;;;7.82;;
25609;SDS011;13479;49.044;8.716;2023-04-19T04:42:03;12.68;;;7.25;;
25609;SDS011;13479;49.044;8.716;2023-04-19T04:44:29;16.20;;;7.32;;
25609;SDS011;13479;49.044;8.716;2023-04-19T04:46:54;11.18;;;5.65;;
25609;SDS011;13479;49.044;8.716;2023-04-19T04:49:20;14.27;;;8.35;;
25609;SDS011;13479;49.044;8.716;2023-04-19T04:51:46;13.30;;;5.95;;
25609;SDS011;13479;49.044;8.716;2023-04-19T04:54:11;14.52;;;8.45;;
25609;SDS011;13479;49.044;8.716;2023-04-19T04:56:36;16.70;;;8.95;;
25609;SDS011;13479;49.044;8.716;2023-04-19T04:59:02;14.93;;;8.23;;
25609;SDS011;13479;49.044;8.716;2023-04-19T05:01:27;13.85;;;7.13;;
25609;SDS011;13479;49.044;8.716;2023-04-19T05:03:52;15.18;;;8.23;;
25609;SDS011;13479;49.044;8.716;2023-04-19T05:06:18;17.35;;;8.90;;
25609;SDS011;13479;49.044;8.716;2023-04-19T05:08:43;13.90;;;8.30;;
25609;SDS011;13479;49.044;8.716;2023-04-19T05:11:09;13.30;;;6.85;;
25609;SDS011;13479;49.044;8.716;2023-04-19T05:13:34;14.45;;;8.20;;
25609;SDS011;13479;49.044;8.716;2023-04-19T05:15:59;11.52;;;6.80;;
25609;SDS011;13479;49.044;8.716;2023-04-19T05:18:25;14.32;;;8.45;;
25609;SDS011;13479;49.044;8.716;2023-04-19T05:20:50;15.40;;;6.22;;
25609;SDS011;13479;49.044;8.716;2023-04-19T05:23:16;13.25;;;7.15;;
25609;SDS011;13479;49.044;8.716;2023-04-19T05:25:42;11.27;;;6.57;;
25609;SDS011;13479;49.044;8.716;2023-04-19T05:28:07;13.57;;;8.55;;
25609;SDS011;13479;49.044;8.716;2023-04-19T05:30:33;12.00;;;6.63;;
25609;SDS011;13479;49.044;8.716;2023-04-19T05:32:58;13.20;;;7.47;;
25609;SDS011;13479;49.044;8.716;2023-04-19T05:35:24;10.27;;;5.22;;
25609;SDS011;13479;49.044;8.716;2023-04-19T05:37:49;12.30;;;7.15;;
25609;SDS011;13479;49.044;8.716;2023-04-19T05:40:15;14.57;;;5.30;;
25609;SDS011;13479;49.044;8.716;2023-04-19T05:42:40;14.75;;;5.25;;
25609;SDS011;13479;49.044;8.716;2023-04-19T05:45:05;12.23;;;6.78;;
25609;SDS011;13479;49.044;8.716;2023-04-19T05:47:32;15.43;;;6.55;;
25609;SDS011;13479;49.044;8.716;2023-04-19T05:49:57;16.23;;;7.57;;
25609;SDS011;13479;49.044;8.716;2023-04-19T05:52:22;13.75;;;7.28;;
25609;SDS011;13479;49.044;8.716;2023-04-19T05:54:47;13.35;;;7.03;;
25609;SDS011;13479;49.044;8.716;2023-04-19T05:57:13;10.73;;;6.35;;
25609;SDS011;13479;49.044;8.716;2023-04-19T05:59:38;13.82;;;6.35;;
25609;SDS011;13479;49.044;8.716;2023-04-19T06:02:03;11.80;;;6.50;;
25609;SDS011;13479;49.044;8.716;2023-04-19T06:04:29;5.38;;;3.10;;
25609;SDS011;13479;49.044;8.716;2023-04-19T06:06:54;10.82;;;5.93;;
25609;SDS011;13479;49.044;8.716;2023-04-19T06:09:19;13.70;;;7.38;;
25609;SDS011;13479;49.044;8.716;2023-04-19T06:11:45;11.95;;;6.70;;
25609;SDS011;13479;49.044;8.716;2023-04-19T06:14:10;11.43;;;4.53;;
25609;SDS011;13479;49.044;8.716;2023-04-19T06:16:37;7.43;;;4.05;;
25609;SDS011;13479;49.044;8.716;2023-04-19T06:19:03;11.20;;;4.68;;
25609;SDS011;13479;49.044;8.716;2023-04-19T06:21:31;12.75;;;7.13;;
25609;SDS011;13479;49.044;8.716;2023-04-19T06:23:56;11.38;;;6.22;;
25609;SDS011;13479;49.044;8.716;2023-04-19T06:26:22;12.82;;;6.63;;
25609;SDS011;13479;49.044;8.716;2023-04-19T06:28:47;10.38;;;5.85;;
25609;SDS011;13479;49.044;8.716;2023-04-19T06:31:13;9.00;;;5.55;;
25609;SDS011;13479;49.044;8.716;2023-04-19T06:33:38;11.10;;;6.18;;
25609;SDS011;13479;49.044;8.716;2023-04-19T06:36:03;6.97;;;4.68;;
25609;SDS011;13479;49.044;8.716;2023-04-19T06:38:29;8.48;;;5.32;;
25609;SDS011;13479;49.044;8.716;2023-04-19T06:40:54;7.88;;;5.35;;
25609;SDS011;13479;49.044;8.716;2023-04-19T06:43:19;9.02;;;5.20;;
25609;SDS011;13479;49.044;8.716;2023-04-19T06:45:45;9.25;;;5.90;;
25609;SDS011;13479;49.044;8.716;2023-04-19T06:48:11;10.52;;;6.05;;
25609;SDS011;13479;49.044;8.716;2023-04-19T06:50:36;9.02;;;6.00;;
25609;SDS011;13479;49.044;8.716;2023-04-19T06:53:02;8.90;;;6.20;;
25609;SDS011;13479;49.044;8.716;2023-04-19T06:55:27;7.47;;;5.60;;
25609;SDS011;13479;49.044;8.716;2023-04-19T06:57:52;7.97;;;5.47;;
25609;SDS011;13479;49.044;8.716;2023-04-19T07:00:17;7.93;;;5.20;;
25609;SDS011;13479;49.044;8.716;2023-04-19T07:02:47;8.05;;;5.80;;
25609;SDS011;13479;49.044;8.716;2023-04-19T07:05:13;7.40;;;5.50;;
25609;SDS011;13479;49.044;8.716;2023-04-19T07:07:39;7.78;;;5.75;;
25609;SDS011;13479;49.044;8.716;2023-04-19T07:10:05;9.32;;;5.85;;
25609;SDS011;13479;49.044;8.716;2023-04-19T07:12:32;9.10;;;6.07;;
25609;SDS011;13479;49.044;8.716;2023-04-19T07:14:58;8.48;;;4.13;;
25609;SDS011;13479;49.044;8.716;2023-04-19T07:17:23;7.70;;;5.70;;
25609;SDS011;13479;49.044;8.716;2023-04-19T07:19:48;8.80;;;5.85;;
25609;SDS011;13479;49.044;8.716;2023-04-19T07:22:14;8.25;;;5.90;;
25609;SDS011;13479;49.044;8.716;2023-04-19T07:24:39;7.78;;;6.05;;
25609;SDS011;13479;49.044;8.716;2023-04-19T07:27:06;8.75;;;5.90;;
25609;SDS011;13479;49.044;8.716;2023-04-19T07:29:33;7.45;;;5.45;;
25609;SDS011;13479;49.044;8.716;2023-04-19T07:31:58;8.02;;;6.43;;
25609;SDS011;13479;49.044;8.716;2023-04-19T07:34:25;7.70;;;5.38;;
25609;SDS011;13479;49.044;8.716;2023-04-19T07:36:51;7.55;;;5.20;;
25609;SDS011;13479;49.044;8.716;2023-04-19T07:39:16;8.10;;;5.40;;
25609;SDS011;13479;49.044;8.716;2023-04-19T07:41:41;7.00;;;5.40;;
25609;SDS011;13479;49.044;8.716;2023-04-19T07:44:07;6.85;;;5.20;;
25609;SDS011;13479;49.044;8.716;2023-04-19T07:46:33;7.32;;;5.22;;
25609;SDS011;13479;49.044;8.716;2023-04-19T07:48:58;7.43;;;5.13;;
25609;SDS011;13479;49.044;8.716;2023-04-19T07:51:23;7.68;;;5.22;;
25609;SDS011;13479;49.044;8.716;2023-04-19T07:53:49;6.82;;;4.95;;
25609;SDS011;13479;49.044;8.716;2023-04-19T07:56:14;6.57;;;5.25;;
25609;SDS011;13479;49.044;8.716;2023-04-19T07:58:39;7.15;;;5.40;;
25609;SDS011;13479;49.044;8.716;2023-04-19T08:01:05;7.07;;;4.72;;
25609;SDS011;13479;49.044;8.716;2023-04-19T08:03:32;8.45;;;5.35;;
25609;SDS011;13479;49.044;8.716;2023-04-19T08:05:59;8.30;;;5.50;;
25609;SDS011;13479;49.044;8.716;2023-04-19T08:08:26;7.05;;;5.35;;
25609;SDS011;13479;49.044;8.716;2023-04-19T08:10:52;7.35;;;4.97;;
25609;SDS011;13479;49.044;8.716;2023-04-19T08:13:19;9.43;;;6.05;;
25609;SDS011;13479;49.044;8.716;2023-04-19T08:15:44;9.43;;;6.30;;
25609;SDS011;13479;49.044;8.716;2023-04-19T08:18:10;8.02;;;5.72;;
25609;SDS011;13479;49.044;8.716;2023-04-19T08:20:35;8.52;;;5.25;;
25609;SDS011;13479;49.044;8.716;2023-04-19T08:23:00;10.32;;;6.60;;
25609;SDS011;13479;49.044;8.716;2023-04-19T08:25:26;9.75;;;6.13;;
25609;SDS011;13479;49.044;8.716;2023-04-19T08:27:53;9.10;;;6.13;;
25609;SDS011;13479;49.044;8.716;2023-04-19T08:30:18;12.27;;;6.53;;
25609;SDS011;13479;49.044;8.716;2023-04-19T08:32:44;9.77;;;6.75;;
25609;SDS011;13479;49.044;8.716;2023-04-19T08:35:10;10.35;;;6.63;;
25609;SDS011;13479;49.044;8.716;2023-04-19T08:37:35;8.45;;;5.32;;
25609;SDS011;13479;49.044;8.716;2023-04-19T08:40:00;10.93;;;6.88;;
25609;SDS011;13479;49.044;8.716;2023-04-19T08:42:26;11.27;;;6.88;;
25609;SDS011;13479;49.044;8.716;2023-04-19T08:44:51;11.95;;;7.28;;
25609;SDS011;13479;49.044;8.716;2023-04-19T08:47:18;9.50;;;6.45;;
25609;SDS011;13479;49.044;8.716;2023-04-19T08:49:45;10.18;;;7.25;;
25609;SDS011;13479;49.044;8.716;2023-04-19T08:52:12;10.98;;;6.93;;
25609;SDS011;13479;49.044;8.716;2023-04-19T08:54:39;12.10;;;5.95;;
25609;SDS011;13479;49.044;8.716;2023-04-19T08:57:05;13.05;;;7.53;;
25609;SDS011;13479;49.044;8.716;2023-04-19T08:59:32;11.07;;;5.45;;
25609;SDS011;13479;49.044;8.716;2023-04-19T09:02:01;10.95;;;6.72;;
25609;SDS011;13479;49.044;8.716;2023-04-19T09:04:27;11.20;;;6.97;;
25609;SDS011;13479;49.044;8.716;2023-04-19T09:06:53;10.18;;;6.47;;
25609;SDS011;13479;49.044;8.716;2023-04-19T09:09:20;9.35;;;5.50;;
25609;SDS011;13479;49.044;8.716;2023-04-19T09:11:45;9.55;;;6.82;;
25609;SDS011;13479;49.044;8.716;2023-04-19T09:14:12;10.32;;;6.47;;
25609;SDS011;13479;49.044;8.716;2023-04-19T09:16:40;13.05;;;7.00;;
25609;SDS011;13479;49.044;8.716;2023-04-19T09:19:06;10.02;;;7.05;;
25609;SDS011;13479;49.044;8.716;2023-04-19T09:21:33;9.65;;;7.13;;
25609;SDS011;13479;49.044;8.716;2023-04-19T09:23:59;9.88;;;6.55;;
25609;SDS011;13479;49.044;8.716;2023-04-19T09:26:25;10.15;;;6.30;;
25609;SDS011;13479;49.044;8.716;2023-04-19T09:31:32;11.48;;;6.43;;
25609;SDS011;13479;49.044;8.716;2023-04-19T09:34:17;11.68;;;6.93;;
25609;SDS011;13479;49.044;8.716;2023-04-19T09:36:43;10.55;;;6.82;;
25609;SDS011;13479;49.044;8.716;2023-04-19T09:39:10;9.95;;;6.20;;
25609;SDS011;13479;49.044;8.716;2023-04-19T09:41:51;9.32;;;5.90;;
25609;SDS011;13479;49.044;8.716;2023-04-19T09:44:17;9.93;;;6.28;;
25609;SDS011;13479;49.044;8.716;2023-04-19T09:46:43;9.20;;;6.45;;
25609;SDS011;13479;49.044;8.716;2023-04-19T09:51:39;8.55;;;5.45;;
25609;SDS011;13479;49.044;8.716;2023-04-19T09:54:08;7.18;;;5.35;;
25609;SDS011;13479;49.044;8.716;2023-04-19T09:56:35;8.68;;;5.60;;
25609;SDS011;13479;49.044;8.716;2023-04-19T09:59:01;7.85;;;4.95;;
25609;SDS011;13479;49.044;8.716;2023-04-19T10:01:27;6.57;;;4.97;;
25609;SDS011;13479;49.044;8.716;2023-04-19T10:03:58;8.05;;;4.35;;
25609;SDS011;13479;49.044;8.716;2023-04-19T10:06:24;8.07;;;5.10;;
25609;SDS011;13479;49.044;8.716;2023-04-19T10:08:51;6.93;;;4.97;;
25609;SDS011;13479;49.044;8.716;2023-04-19T10:11:19;8.38;;;5.28;;
25609;SDS011;13479;49.044;8.716;2023-04-19T10:13:46;8.90;;;5.20;;
25609;SDS011;13479;49.044;8.716;2023-04-19T10:16:13;8.50;;;5.80;;
25609;SDS011;13479;49.044;8.716;2023-04-19T10:18:39;7.63;;;5.32;;
25609;SDS011;13479;49.044;8.716;2023-04-19T10:21:06;9.52;;;5.68;;
25609;SDS011;13479;49.044;8.716;2023-04-19T10:23:34;6.18;;;3.17;;
25609;SDS011;13479;49.044;8.716;2023-04-19T10:26:01;7.97;;;5.20;;
25609;SDS011;13479;49.044;8.716;2023-04-19T10:28:29;9.10;;;5.88;;
25609;SDS011;13479;49.044;8.716;2023-04-19T10:30:58;8.05;;;5.50;;
25609;SDS011;13479;49.044;8.716;2023-04-19T10:33:29;8.48;;;5.55;;
25609;SDS011;13479;49.044;8.716;2023-04-19T10:35:56;9.90;;;5.30;;
25609;SDS011;13479;49.044;8.716;2023-04-19T10:41:05;10.90;;;5.95;;
25609;SDS011;13479;49.044;8.716;2023-04-19T10:43:36;9.40;;;6.45;;
25609;SDS011;13479;49.044;8.716;2023-04-19T10:46:06;12.18;;;6.13;;
25609;SDS011;13479;49.044;8.716;2023-04-19T10:48:40;8.75;;;5.82;;
25609;SDS011;13479;49.044;8.716;2023-04-19T10:51:37;10.00;;;6.55;;
25609;SDS011;13479;49.044;8.716;2023-04-19T10:54:06;8.90;;;6.35;;
25609;SDS011;13479;49.044;8.716;2023-04-19T10:57:09;9.60;;;5.65;;
25609;SDS011;13479;49.044;8.716;2023-04-19T10:59:36;12.85;;;5.88;;
25609;SDS011;13479;49.044;8.716;2023-04-19T11:02:04;12.40;;;6.82;;
25609;SDS011;13479;49.044;8.716;2023-04-19T11:07:15;8.90;;;6.05;;
25609;SDS011;13479;49.044;8.716;2023-04-19T11:09:45;12.07;;;6.80;;
25609;SDS011;13479;49.044;8.716;2023-04-19T11:12:18;10.73;;;6.80;;
25609;SDS011;13479;49.044;8.716;2023-04-19T11:14:46;11.30;;;6.55;;
25609;SDS011;13479;49.044;8.716;2023-04-19T11:19:43;10.15;;;6.60;;
25609;SDS011;13479;49.044;8.716;2023-04-19T11:22:09;8.52;;;6.03;;
25609;SDS011;13479;49.044;8.716;2023-04-19T11:24:34;10.18;;;6.13;;
25609;SDS011;13479;49.044;8.716;2023-04-19T11:27:00;8.85;;;5.63;;
25609;SDS011;13479;49.044;8.716;2023-04-19T11:29:31;10.65;;;6.40;;
25609;SDS011;13479;49.044;8.716;2023-04-19T11:31:58;10.15;;;6.15;;
25609;SDS011;13479;49.044;8.716;2023-04-19T11:34:24;10.13;;;6.15;;
25609;SDS011;13479;49.044;8.716;2023-04-19T11:36:50;10.52;;;7.30;;
25609;SDS011;13479;49.044;8.716;2023-04-19T11:39:16;8.88;;;5.95;;
25609;SDS011;13479;49.044;8.716;2023-04-19T11:41:41;11.55;;;6.45;;
25609;SDS011;13479;49.044;8.716;2023-04-19T11:44:16;7.95;;;5.63;;
25609;SDS011;13479;49.044;8.716;2023-04-19T11:46:56;13.30;;;6.95;;
25609;SDS011;13479;49.044;8.716;2023-04-19T11:49:29;7.63;;;5.32;;
25609;SDS011;13479;49.044;8.716;2023-04-19T11:52:00;9.55;;;6.65;;
25609;SDS011;13479;49.044;8.716;2023-04-19T11:54:27;11.25;;;6.28;;
25609;SDS011;13479;49.044;8.716;2023-04-19T11:56:55;13.52;;;6.60;;
25609;SDS011;13479;49.044;8.716;2023-04-19T11:59:23;8.65;;;5.93;;
25609;SDS011;13479;49.044;8.716;2023-04-19T12:01:49;8.55;;;6.50;;
25609;SDS011;13479;49.044;8.716;2023-04-19T12:04:14;9.18;;;5.97;;
25609;SDS011;13479;49.044;8.716;2023-04-19T12:06:40;10.68;;;6.43;;
25609;SDS011;13479;49.044;8.716;2023-04-19T12:09:06;10.38;;;6.57;;
25609;SDS011;13479;49.044;8.716;2023-04-19T12:11:42;12.23;;;7.22;;
25609;SDS011;13479;49.044;8.716;2023-04-19T12:14:15;11.98;;;7.07;;
25609;SDS011;13479;49.044;8.716;2023-04-19T12:16:44;15.20;;;8.30;;
25609;SDS011;13479;49.044;8.716;2023-04-19T12:19:10;14.30;;;7.55;;
25609;SDS011;13479;49.044;8.716;2023-04-19T12:21:41;13.90;;;7.72;;
25609;SDS011;13479;49.044;8.716;2023-04-19T12:24:07;13.38;;;8.68;;
25609;SDS011;13479;49.044;8.716;2023-04-19T12:26:54;15.77;;;9.57;;
25609;SDS011;13479;49.044;8.716;2023-04-19T12:29:20;15.90;;;9.40;;
25609;SDS011;13479;49.044;8.716;2023-04-19T12:31:45;13.38;;;8.27;;
25609;SDS011;13479;49.044;8.716;2023-04-19T12:34:11;17.60;;;7.28;;
25609;SDS011;13479;49.044;8.716;2023-04-19T12:36:36;13.70;;;7.65;;
25609;SDS011;13479;49.044;8.716;2023-04-19T12:39:01;15.82;;;7.28;;
25609;SDS011;13479;49.044;8.716;2023-04-19T12:41:27;12.77;;;6.82;;
25609;SDS011;13479;49.044;8.716;2023-04-19T12:43:52;8.57;;;4.70;;
25609;SDS011;13479;49.044;8.716;2023-04-19T12:46:17;15.23;;;7.22;;
25609;SDS011;13479;49.044;8.716;2023-04-19T12:48:42;11.30;;;5.25;;
25609;SDS011;13479;49.044;8.716;2023-04-19T12:51:08;13.38;;;6.05;;
25609;SDS011;13479;49.044;8.716;2023-04-19T12:53:33;14.20;;;7.68;;
25609;SDS011;13479;49.044;8.716;2023-04-19T12:55:58;16.45;;;8.13;;
25609;SDS011;13479;49.044;8.716;2023-04-19T12:58:24;13.07;;;5.25;;
25609;SDS011;13479;49.044;8.716;2023-04-19T13:00:50;12.02;;;6.47;;
25609;SDS011;13479;49.044;8.716;2023-04-19T13:03:15;13.90;;;6.93;;
25609;SDS011;13479;49.044;8.716;2023-04-19T13:05:41;15.45;;;7.18;;
25609;SDS011;13479;49.044;8.716;2023-04-19T13:08:06;13.70;;;7.03;;
25609;SDS011;13479;49.044;8.716;2023-04-19T13:10:31;11.80;;;7.78;;
25609;SDS011;13479;49.044;8.716;2023-04-19T13:12:57;14.73;;;6.63;;
25609;SDS011;13479;49.044;8.716;2023-04-19T13:15:23;12.98;;;7.10;;
25609;SDS011;13479;49.044;8.716;2023-04-19T13:17:49;12.10;;;6.90;;
25609;SDS011;13479;49.044;8.716;2023-04-19T13:20:14;12.60;;;6.05;;
25609;SDS011;13479;49.044;8.716;2023-04-19T13:22:40;10.95;;;6.45;;
25609;SDS011;13479;49.044;8.716;2023-04-19T13:25:05;13.57;;;7.88;;
25609;SDS011;13479;49.044;8.716;2023-04-19T13:27:31;12.20;;;6.97;;
25609;SDS011;13479;49.044;8.716;2023-04-19T13:29:56;13.23;;;8.25;;
25609;SDS011;13479;49.044;8.716;2023-04-19T13:32:22;16.30;;;8.10;;
25609;SDS011;13479;49.044;8.716;2023-04-19T13:34:47;12.88;;;7.03;;
25609;SDS011;13479;49.044;8.716;2023-04-19T13:37:13;12.77;;;7.07;;
25609;SDS011;13479;49.044;8.716;2023-04-19T13:39:39;12.82;;;7.13;;
25609;SDS011;13479;49.044;8.716;2023-04-19T13:42:05;13.40;;;6.57;;
25609;SDS011;13479;49.044;8.716;2023-04-19T13:44:31;9.80;;;5.72;;
25609;SDS011;13479;49.044;8.716;2023-04-19T13:46:56;10.75;;;5.40;;
25609;SDS011;13479;49.044;8.716;2023-04-19T13:49:22;12.57;;;7.22;;
25609;SDS011;13479;49.044;8.716;2023-04-19T13:51:47;11.98;;;6.75;;
25609;SDS011;13479;49.044;8.716;2023-04-19T13:54:13;15.23;;;6.53;;
25609;SDS011;13479;49.044;8.716;2023-04-19T13:56:38;12.15;;;6.82;;
25609;SDS011;13479;49.044;8.716;2023-04-19T13:59:03;14.32;;;7.97;;
25609;SDS011;13479;49.044;8.716;2023-04-19T14:01:29;11.90;;;7.57;;
25609;SDS011;13479;49.044;8.716;2023-04-19T14:03:54;12.50;;;6.90;;
25609;SDS011;13479;49.044;8.716;2023-04-19T14:06:19;9.90;;;6.68;;
25609;SDS011;13479;49.044;8.716;2023-04-19T14:08:45;10.38;;;6.55;;
25609;SDS011;13479;49.044;8.716;2023-04-19T14:11:10;10.05;;;5.95;;
25609;SDS011;13479;49.044;8.716;2023-04-19T14:13:36;8.95;;;5.82;;
25609;SDS011;13479;49.044;8.716;2023-04-19T14:16:01;9.95;;;5.00;;
25609;SDS011;13479;49.044;8.716;2023-04-19T14:18:26;11.30;;;6.25;;
25609;SDS011;13479;49.044;8.716;2023-04-19T14:20:52;12.23;;;6.43;;
25609;SDS011;13479;49.044;8.716;2023-04-19T14:23:17;11.90;;;6.63;;
25609;SDS011;13479;49.044;8.716;2023-04-19T14:25:42;11.38;;;6.47;;
25609;SDS011;13479;49.044;8.716;2023-04-19T14:28:08;10.40;;;6.15;;
25609;SDS011;13479;49.044;8.716;2023-04-19T14:30:33;11.50;;;7.22;;
25609;SDS011;13479;49.044;8.716;2023-04-19T14:32:58;11.02;;;6.97;;
25609;SDS011;13479;49.044;8.716;2023-04-19T14:35:24;10.20;;;5.28;;
25609;SDS011;13479;49.044;8.716;2023-04-19T14:37:52;13.68;;;6.40;;
25609;SDS011;13479;49.044;8.716;2023-04-19T14:40:18;9.80;;;6.07;;
25609;SDS011;13479;49.044;8.716;2023-04-19T14:42:44;10.65;;;6.13;;
25609;SDS011;13479;49.044;8.716;2023-04-19T14:45:10;10.13;;;6.40;;
25609;SDS011;13479;49.044;8.716;2023-04-19T14:47:35;9.18;;;5.03;;
25609;SDS011;13479;49.044;8.716;2023-04-19T14:50:00;13.63;;;6.32;;
25609;SDS011;13479;49.044;8.716;2023-04-19T14:52:27;10.05;;;5.72;;
25609;SDS011;13479;49.044;8.716;2023-04-19T14:54:54;8.65;;;5.05;;
25609;SDS011;13479;49.044;8.716;2023-04-19T14:57:19;10.30;;;6.40;;
25609;SDS011;13479;49.044;8.716;2023-04-19T14:59:44;10.57;;;6.28;;
25609;SDS011;13479;49.044;8.716;2023-04-19T15:02:10;11.13;;;7.03;;
25609;SDS011;13479;49.044;8.716;2023-04-19T15:04:37;9.43;;;6.53;;
25609;SDS011;13479;49.044;8.716;2023-04-19T15:07:02;14.10;;;7.22;;
25609;SDS011;13479;49.044;8.716;2023-04-19T15:09:28;10.88;;;6.25;;
25609;SDS011;13479;49.044;8.716;2023-04-19T15:11:53;10.30;;;5.85;;
25609;SDS011;13479;49.044;8.716;2023-04-19T15:14:18;13.50;;;6.65;;
25609;SDS011;13479;49.044;8.716;2023-04-19T15:16:44;12.32;;;6.63;;
25609;SDS011;13479;49.044;8.716;2023-04-19T15:19:09;9.73;;;6.25;;
25609;SDS011;13479;49.044;8.716;2023-04-19T15:21:35;9.80;;;6.50;;
25609;SDS011;13479;49.044;8.716;2023-04-19T15:24:00;11.10;;;6.38;;
25609;SDS011;13479;49.044;8.716;2023-04-19T15:26:26;12.50;;;5.82;;
25609;SDS011;13479;49.044;8.716;2023-04-19T15:28:51;13.00;;;6.45;;
25609;SDS011;13479;49.044;8.716;2023-04-19T15:31:18;9.95;;;6.55;;
25609;SDS011;13479;49.044;8.716;2023-04-19T15:33:43;11.20;;;5.70;;
25609;SDS011;13479;49.044;8.716;2023-04-19T15:36:09;8.63;;;5.88;;
25609;SDS011;13479;49.044;8.716;2023-04-19T15:38:34;11.35;;;6.28;;
25609;SDS011;13479;49.044;8.716;2023-04-19T15:40:59;10.48;;;6.25;;
25609;SDS011;13479;49.044;8.716;2023-04-19T15:43:25;11.02;;;6.40;;
25609;SDS011;13479;49.044;8.716;2023-04-19T15:45:51;9.07;;;5.55;;
25609;SDS011;13479;49.044;8.716;2023-04-19T15:48:17;7.68;;;5.55;;
25609;SDS011;13479;49.044;8.716;2023-04-19T15:50:44;9.20;;;5.90;;
25609;SDS011;13479;49.044;8.716;2023-04-19T15:53:09;8.80;;;5.78;;
25609;SDS011;13479;49.044;8.716;2023-04-19T15:55:34;9.05;;;5.72;;
25609;SDS011;13479;49.044;8.716;2023-04-19T15:58:01;10.00;;;6.10;;
25609;SDS011;13479;49.044;8.716;2023-04-19T16:00:27;12.13;;;5.78;;
25609;SDS011;13479;49.044;8.716;2023-04-19T16:02:52;9.52;;;5.97;;
25609;SDS011;13479;49.044;8.716;2023-04-19T16:05:18;9.00;;;5.72;;
25609;SDS011;13479;49.044;8.716;2023-04-19T16:07:43;9.05;;;5.72;;
25609;SDS011;13479;49.044;8.716;2023-04-19T16:10:09;10.32;;;5.70;;
25609;SDS011;13479;49.044;8.716;2023-04-19T16:12:35;7.18;;;5.32;;
25609;SDS011;13479;49.044;8.716;2023-04-19T16:15:01;9.75;;;6.13;;
25609;SDS011;13479;49.044;8.716;2023-04-19T16:17:27;9.57;;;5.40;;
25609;SDS011;13479;49.044;8.716;2023-04-19T16:19:53;10.25;;;6.88;;
25609;SDS011;13479;49.044;8.716;2023-04-19T16:22:18;7.95;;;4.97;;
25609;SDS011;13479;49.044;8.716;2023-04-19T16:24:43;7.95;;;5.68;;
25609;SDS011;13479;49.044;8.716;2023-04-19T16:27:10;9.38;;;5.63;;
25609;SDS011;13479;49.044;8.716;2023-04-19T16:29:36;8.02;;;5.10;;
25609;SDS011;13479;49.044;8.716;2023-04-19T16:32:02;7.25;;;4.90;;
25609;SDS011;13479;49.044;8.716;2023-04-19T16:34:28;7.63;;;4.72;;
25609;SDS011;13479;49.044;8.716;2023-04-19T16:36:54;10.38;;;5.63;;
25609;SDS011;13479;49.044;8.716;2023-04-19T16:39:19;10.38;;;5.30;;
25609;SDS011;13479;49.044;8.716;2023-04-19T16:41:45;8.18;;;5.40;;
25609;SDS011;13479;49.044;8.716;2023-04-19T16:44:10;9.15;;;5.82;;
25609;SDS011;13479;49.044;8.716;2023-04-19T16:46:35;10.15;;;6.47;;
25609;SDS011;13479;49.044;8.716;2023-04-19T16:49:01;10.82;;;5.78;;
25609;SDS011;13479;49.044;8.716;2023-04-19T16:51:27;8.70;;;5.40;;
25609;SDS011;13479;49.044;8.716;2023-04-19T16:53:52;7.45;;;5.13;;
25609;SDS011;13479;49.044;8.716;2023-04-19T16:56:18;10.18;;;3.80;;
25609;SDS011;13479;49.044;8.716;2023-04-19T16:58:43;6.45;;;3.90;;
25609;SDS011;13479;49.044;8.716;2023-04-19T17:01:10;4.88;;;2.67;;
25609;SDS011;13479;49.044;8.716;2023-04-19T17:03:35;4.32;;;1.83;;
25609;SDS011;13479;49.044;8.716;2023-04-19T17:06:01;2.58;;;1.23;;
25609;SDS011;13479;49.044;8.716;2023-04-19T17:08:26;2.22;;;1.05;;
25609;SDS011;13479;49.044;8.716;2023-04-19T17:10:51;3.40;;;1.00;;
25609;SDS011;13479;49.044;8.716;2023-04-19T17:13:16;1.63;;;0.65;;
25609;SDS011;13479;49.044;8.716;2023-04-19T17:15:42;2.38;;;0.80;;
25609;SDS011;13479;49.044;8.716;2023-04-19T17:18:07;2.05;;;0.73;;
25609;SDS011;13479;49.044;8.716;2023-04-19T17:20:32;6.28;;;1.00;;
25609;SDS011;13479;49.044;8.716;2023-04-19T17:22:58;2.30;;;0.63;;
25609;SDS011;13479;49.044;8.716;2023-04-19T17:25:23;3.78;;;0.88;;
25609;SDS011;13479;49.044;8.716;2023-04-19T17:27:48;1.38;;;0.85;;
25609;SDS011;13479;49.044;8.716;2023-04-19T17:30:14;1.35;;;0.77;;
25609;SDS011;13479;49.044;8.716;2023-04-19T17:32:40;2.85;;;0.98;;
25609;SDS011;13479;49.044;8.716;2023-04-19T17:35:05;4.38;;;0.93;;
25609;SDS011;13479;49.044;8.716;2023-04-19T17:37:31;2.35;;;0.93;;
25609;SDS011;13479;49.044;8.716;2023-04-19T17:39:57;1.83;;;0.90;;
25609;SDS011;13479;49.044;8.716;2023-04-19T17:42:22;1.98;;;1.00;;
25609;SDS011;13479;49.044;8.716;2023-04-19T17:44:48;2.08;;;0.80;;
25609;SDS011;13479;49.044;8.716;2023-04-19T17:47:14;1.55;;;0.90;;
25609;SDS011;13479;49.044;8.716;2023-04-19T17:49:39;2.22;;;1.00;;
25609;SDS011;13479;49.044;8.716;2023-04-19T17:52:05;3.33;;;1.10;;
25609;SDS011;13479;49.044;8.716;2023-04-19T17:54:30;1.98;;;0.93;;
25609;SDS011;13479;49.044;8.716;2023-04-19T17:56:56;5.65;;;1.10;;
25609;SDS011;13479;49.044;8.716;2023-04-19T17:59:23;5.15;;;1.20;;
25609;SDS011;13479;49.044;8.716;2023-04-19T18:01:48;1.95;;;0.82;;
25609;SDS011;13479;49.044;8.716;2023-04-19T18:04:14;3.63;;;1.70;;
25609;SDS011;13479;49.044;8.716;2023-04-19T18:06:41;1.98;;;1.30;;
25609;SDS011;13479;49.044;8.716;2023-04-19T18:09:07;3.25;;;1.33;;
25609;SDS011;13479;49.044;8.716;2023-04-19T18:11:32;4.70;;;1.35;;
25609;SDS011;13479;49.044;8.716;2023-04-19T18:13:57;2.67;;;1.30;;
25609;SDS011;13479;49.044;8.716;2023-04-19T18:16:22;6.43;;;1.10;;
25609;SDS011;13479;49.044;8.716;2023-04-19T18:18:48;2.72;;;1.10;;
25609;SDS011;13479;49.044;8.716;2023-04-19T18:21:14;5.75;;;1.30;;
25609;SDS011;13479;49.044;8.716;2023-04-19T18:23:39;5.10;;;1.30;;
25609;SDS011;13479;49.044;8.716;2023-04-19T18:26:05;2.45;;;1.20;;
25609;SDS011;13479;49.044;8.716;2023-04-19T18:28:30;2.53;;;1.23;;
25609;SDS011;13479;49.044;8.716;2023-04-19T18:30:55;2.40;;;0.93;;
25609;SDS011;13479;49.044;8.716;2023-04-19T18:33:21;1.95;;;1.20;;
25609;SDS011;13479;49.044;8.716;2023-04-19T18:35:46;3.03;;;1.10;;
25609;SDS011;13479;49.044;8.716;2023-04-19T18:38:11;1.60;;;1.13;;
25609;SDS011;13479;49.044;8.716;2023-04-19T18:40:37;2.55;;;1.15;;
25609;SDS011;13479;49.044;8.716;2023-04-19T18:43:02;2.83;;;1.20;;
25609;SDS011;13479;49.044;8.716;2023-04-19T18:45:27;2.45;;;1.40;;
25609;SDS011;13479;49.044;8.716;2023-04-19T18:47:53;2.35;;;1.10;;